Decoded Metar for KDIJ (DRIGGS REED MEM in ID, USA) (IATA:DIJ) | Meteo·Mobile Aviation Weather
aviador You're here:

KDIJ Decoded Metar

DRIGGS REED MEM in ID, USA
Report Time2019-02-22 13:56:00
UTC Time2019-02-22 14:35:45
Flight Rules vfr VFR
WindCalm
Visibility9999 m
Phenomena:N/A
Clouds:N/A
Expected CloudBase > 1,200 ft AGL from Temp-Dew spread
CeilingNone
Temp-25°C (ISA -28)
Dew Point-28°C (76% RH)
AAT-28.8°C
QNH1009 hPa
Density Alt2,884 ft
Elevation6,230 ft
Report Wrong Elevation
Raw Report
KDIJ 221356Z AUTO 00000KT 10SM CLR M25/M28 A2981 RMK AO2 SLP235
T12501278=

Extra information for KDIJ:More info

Metar Taf Metar & Taf Last 4 Metars F.Rules Stats Wind Profile Meteogram Temp Stats Airport Information Weather charts Add Link Nearby VenuesMetar ALERT Operation Metar Decoded Social comments

AIRNAV info for KDIJ